Kezdőlap
METAR-TAF:

METAR-TAF

Repülőterek :

Aurora, Illinois, Amerikai Egyesült Államok

földrajzi szélesség: 41-46-12N, földrajzi hosszúság: 088-28-53W, magasság: 215 m

Jelenlegi meteorológiai megfigyelések

A jelentés 24 perccel ezelõtt készült, 09:52 UTC
Szélcsend
Hőmérséklet 16°C
Páratartalom 88%
Légköri nyomás 1020 hPa
Látótávolság: 8.0 km
Derült ég
Párásság

METAR: KARR 210952Z AUTO 00000KT 5SM BR CLR 16/14 A3011 RMK AO2 SLP194 T01610144

Idő: 05:16 (10:16 UTC)


TAF: hiányzik

Meteorológiai megfigyelések és előrejelzések több, mint 4000 repülőtéren (METAR és TAF jelentéseket).

A térképen piros és sárga pontok jelzik az elérhető meteorológiai állomásokat.

Mozgassa az egeret a pont fölött, hogy megjelenjen az állomás neve.

Azután kattintson az időjárási megfigyelések és előrejelzések megtekintéséhez.

A térkép megváltoztatása: kattintson a fekete keresztel jelölt zöld gombra ráközelítéshez, a vonallal jelölt zöld gombra távolításhoz, vagy a zöld nyilakra a szomszédos térképek eléréséhez.


METAR-TAF: